Time;durP1;ratioP1;P1;durP2;ratioP2;P2;SDS_P1;SDS_P2;PMS_P1;PMS_P2;Temp;Humidity;BMP_temperature;BMP_pressure;BME280_temperature;BME280_humidity;BME280_pressure;Samples;Min_cycle;Max_cycle;Signal;HPM_P1;HPM_P2
2023/07/09 00:01:20;;;;;;;;;;;;;;;22.89;55.12;101048.44;7396575;19;1397;-54
2023/07/09 00:03:51;;;;;;;;;;;;;;;22.84;55.42;101048.06;7396666;19;1234;-53
2023/07/09 00:06:19;;;;;;;;;;;;;;;22.88;55.01;101037.78;7397048;19;1172;-53
2023/07/09 00:08:48;;;;;;;;;;;;;;;22.88;55.02;101045.88;7396852;19;1453;-53
2023/07/09 00:11:17;;;;;;;;;;;;;;;22.77;55.21;101053.19;7397780;19;1227;-53
2023/07/09 00:13:45;;;;;;;;;;;;;;;22.77;55.04;101055.06;7395840;19;1855;-53
2023/07/09 00:16:16;;;;;;;;;;;;;;;22.76;55.22;101054.22;7397104;19;1255;-53
2023/07/09 00:18:48;;;;;;;;;;;;;;;22.76;55.16;101050.66;7396596;19;1152;-53
2023/07/09 00:21:17;;;;;;;;;;;;;;;22.74;55.10;101052.66;7397168;19;1398;-53
2023/07/09 00:23:45;;;;;;;;;;;;;;;22.70;55.29;101056.66;7396978;19;1315;-53
2023/07/09 00:26:15;;;;;;;;;;;;;;;22.75;55.11;101059.75;7396996;19;1443;-54
2023/07/09 00:28:43;;;;;;;;;;;;;;;22.70;55.18;101067.44;7398480;19;1059;-53
2023/07/09 00:31:14;;;;;;;;;;;;;;;22.64;55.22;101069.75;7397977;19;1097;-54
2023/07/09 00:33:43;;;;;;;;;;;;;;;22.75;54.97;101062.44;7396653;19;1853;-54
2023/07/09 00:36:17;;;;;;;;;;;;;;;22.78;54.92;101064.81;7396740;19;1920;-53
2023/07/09 00:38:47;;;;;;;;;;;;;;;22.78;54.71;101073.78;7396828;19;1851;-53
2023/07/09 00:41:17;;;;;;;;;;;;;;;22.86;54.50;101056.84;7396860;19;1436;-53
2023/07/09 00:43:46;;;;;;;;;;;;;;;22.82;54.77;101055.47;7394458;19;1468;-53
2023/07/09 00:46:39;;;;;;;;;;;;;;;22.95;54.78;101050.50;7393923;19;1013;-53
2023/07/09 00:49:08;;;;;;;;;;;;;;;22.83;55.16;101057.13;7394599;19;1517;-54
2023/07/09 00:51:41;;;;;;;;;;;;;;;22.81;55.11;101040.25;7395664;19;1472;-54
2023/07/09 00:54:14;;;;;;;;;;;;;;;22.83;54.95;101051.75;7395291;19;1857;-55
2023/07/09 00:56:45;;;;;;;;;;;;;;;22.81;55.03;101069.91;7403249;19;1105;-53
2023/07/09 00:59:17;;;;;;;;;;;;;;;22.78;55.08;101054.03;7403495;19;1180;-53
2023/07/09 01:01:49;;;;;;;;;;;;;;;22.80;55.41;101062.81;7403731;19;1429;-53
2023/07/09 01:04:19;;;;;;;;;;;;;;;22.77;55.09;101057.75;7402797;19;1206;-53
2023/07/09 01:06:52;;;;;;;;;;;;;;;22.75;54.68;101055.19;7403182;19;1599;-53
2023/07/09 01:09:21;;;;;;;;;;;;;;;22.69;54.64;101055.81;7403549;19;1187;-53
2023/07/09 01:11:50;;;;;;;;;;;;;;;22.60;54.66;101057.59;7404789;19;1547;-54
2023/07/09 01:14:21;;;;;;;;;;;;;;;22.57;54.23;101047.09;7401256;19;1865;-53
2023/07/09 01:16:57;;;;;;;;;;;;;;;22.56;54.16;101058.91;7404547;19;964;-53
2023/07/09 01:19:25;;;;;;;;;;;;;;;22.54;54.54;101047.41;7403818;19;1298;-52
2023/07/09 01:21:58;;;;;;;;;;;;;;;22.55;54.25;101054.50;7403808;19;1907;-54
2023/07/09 01:24:41;;;;;;;;;;;;;;;22.64;53.77;101041.94;7402699;19;1818;-53
2023/07/09 01:27:10;;;;;;;;;;;;;;;22.60;54.17;101054.91;7404145;19;1928;-53
2023/07/09 01:29:38;;;;;;;;;;;;;;;22.59;54.00;101065.81;7403334;19;1809;-53
2023/07/09 01:32:07;;;;;;;;;;;;;;;22.50;54.19;101045.16;7401077;19;1659;-53
2023/07/09 01:34:36;;;;;;;;;;;;;;;22.54;54.21;101052.81;7398834;19;1857;-53
2023/07/09 01:37:07;;;;;;;;;;;;;;;22.54;53.89;101055.50;7402051;19;1710;-53
2023/07/09 01:39:35;;;;;;;;;;;;;;;22.47;54.01;101069.72;7401989;19;1321;-54
2023/07/09 01:42:08;;;;;;;;;;;;;;;22.44;54.03;101052.88;7402074;19;1932;-53
2023/07/09 01:44:38;;;;;;;;;;;;;;;22.47;53.69;101072.44;7401278;19;1815;-53
2023/07/09 01:47:06;;;;;;;;;;;;;;;22.48;53.79;101074.09;7401639;19;1540;-53
2023/07/09 01:49:35;;;;;;;;;;;;;;;22.43;53.64;101069.19;7400650;19;1163;-53
2023/07/09 01:52:03;;;;;;;;;;;;;;;22.44;53.92;101070.84;7401245;19;1496;-54
2023/07/09 01:54:37;;;;;;;;;;;;;;;22.52;54.24;101094.38;7399913;19;1843;-54
2023/07/09 01:57:17;;;;;;;;;;;;;;;22.55;54.28;101081.44;7400351;19;1382;-54
2023/07/09 01:59:45;;;;;;;;;;;;;;;22.50;53.72;101086.47;7400620;19;1289;-54
2023/07/09 02:02:19;;;;;;;;;;;;;;;22.43;53.98;101082.66;7400746;19;1190;-53
2023/07/09 02:04:48;;;;;;;;;;;;;;;22.42;53.93;101086.34;7400312;19;1274;-54
2023/07/09 02:07:16;;;;;;;;;;;;;;;22.45;53.93;101091.44;7399415;19;1219;-54
2023/07/09 02:09:47;;;;;;;;;;;;;;;22.46;54.36;101084.19;7401887;19;1497;-54
2023/07/09 02:12:16;;;;;;;;;;;;;;;22.48;53.73;101099.19;7402636;19;1192;-53
2023/07/09 02:14:45;;;;;;;;;;;;;;;22.43;53.96;101096.13;7399995;19;1924;-53
2023/07/09 02:17:14;;;;;;;;;;;;;;;22.43;53.76;101105.06;7402649;19;1484;-53
2023/07/09 02:19:42;;;;;;;;;;;;;;;22.39;53.48;101100.13;7399087;19;1734;-53
2023/07/09 02:22:11;;;;;;;;;;;;;;;22.32;53.64;101093.63;7402266;19;1038;-53
2023/07/09 02:24:39;;;;;;;;;;;;;;;;;;7400858;19;1884;-54
2023/07/09 02:27:11;;;;;;;;;;;;;;;22.33;53.45;101111.50;7400097;19;1508;-53
2023/07/09 02:29:40;;;;;;;;;;;;;;;22.39;53.52;101102.81;7400875;19;1920;-53
2023/07/09 02:32:09;;;;;;;;;;;;;;;22.39;53.59;101114.44;7400125;19;1806;-53
2023/07/09 02:34:37;;;;;;;;;;;;;;;22.34;53.18;101115.88;7399048;19;1860;-53
2023/07/09 02:37:05;;;;;;;;;;;;;;;22.33;54.02;101103.41;7399842;19;1822;-54
2023/07/09 02:39:34;;;;;;;;;;;;;;;22.41;53.70;101128.59;7399478;19;1831;-54
2023/07/09 02:42:02;;;;;;;;;;;;;;;22.41;53.45;101138.53;7400476;19;1164;-53
2023/07/09 02:44:33;;;;;;;;;;;;;;;22.40;53.71;101131.44;7399342;19;1547;-54
2023/07/09 02:47:01;;;;;;;;;;;;;;;22.42;53.65;101126.75;7399537;19;1416;-53
2023/07/09 02:49:29;;;;;;;;;;;;;;;22.46;53.13;101135.41;7399452;19;1152;-54
2023/07/09 02:51:57;;;;;;;;;;;;;;;22.44;53.27;101127.44;7399584;19;1520;-54
2023/07/09 02:54:26;;;;;;;;;;;;;;;22.43;53.16;101123.06;7399247;19;1869;-54
2023/07/09 02:56:54;;;;;;;;;;;;;;;22.49;53.45;101141.34;7398877;19;1917;-53
2023/07/09 02:59:22;;;;;;;;;;;;;;;22.58;54.02;101134.19;7400699;19;1663;-53
2023/07/09 03:01:53;;;;;;;;;;;;;;;22.42;53.59;101138.41;7398975;19;1426;-53
2023/07/09 03:04:22;;;;;;;;;;;;;;;22.67;52.61;101122.50;7398775;19;1805;-55
2023/07/09 03:06:51;;;;;;;;;;;;;;;22.68;52.88;101136.84;7400057;19;1449;-54
2023/07/09 03:09:19;;;;;;;;;;;;;;;22.72;52.69;101146.31;7372615;19;12536;-54
2023/07/09 03:11:48;;;;;;;;;;;;;;;22.69;52.33;101142.09;7398392;19;1296;-54
2023/07/09 03:14:17;;;;;;;;;;;;;;;22.58;52.46;101135.06;7397378;19;1841;-54
2023/07/09 03:16:46;;;;;;;;;;;;;;;22.55;52.21;101139.91;7399735;19;1031;-54
2023/07/09 03:19:16;;;;;;;;;;;;;;;22.51;52.43;101128.56;7397644;19;1819;-53
2023/07/09 03:21:45;;;;;;;;;;;;;;;22.67;52.05;101137.84;7397139;19;1932;-53
2023/07/09 03:24:18;;;;;;;;;;;;;;;22.36;53.16;101135.44;7398411;19;1466;-53
2023/07/09 03:26:46;;;;;;;;;;;;;;;22.52;52.78;101138.34;7398284;19;1195;-53
2023/07/09 03:29:15;;;;;;;;;;;;;;;22.51;52.51;101135.81;7398160;19;1477;-53
2023/07/09 03:31:43;;;;;;;;;;;;;;;22.62;52.60;101144.53;7398366;19;1548;-53
2023/07/09 03:34:11;;;;;;;;;;;;;;;22.55;52.72;101146.13;7396631;19;1857;-53
2023/07/09 03:36:42;;;;;;;;;;;;;;;22.62;52.49;101146.38;7398605;19;1488;-54
2023/07/09 03:39:10;;;;;;;;;;;;;;;22.28;53.32;101133.47;7397924;19;1215;-54
2023/07/09 03:41:39;;;;;;;;;;;;;;;22.40;53.00;101136.84;7397301;19;1258;-54
2023/07/09 03:44:07;;;;;;;;;;;;;;;22.46;53.14;101138.94;7396760;19;1618;-53
2023/07/09 03:46:35;;;;;;;;;;;;;;;22.31;53.26;101154.75;7398390;19;1215;-53
2023/07/09 03:49:03;;;;;;;;;;;;;;;22.12;53.88;101160.16;7396317;19;1208;-53
2023/07/09 03:51:32;;;;;;;;;;;;;;;22.23;53.56;101155.44;7396239;19;1176;-54
2023/07/09 03:54:03;;;;;;;;;;;;;;;22.31;53.71;101141.28;7397006;19;1148;-53
2023/07/09 03:56:31;;;;;;;;;;;;;;;22.43;53.48;101160.81;7394898;19;1850;-53
2023/07/09 03:58:59;;;;;;;;;;;;;;;22.62;52.71;101147.25;7394558;19;1665;-54
2023/07/09 04:01:27;;;;;;;;;;;;;;;22.33;53.46;101163.53;7397277;19;1505;-53
2023/07/09 04:03:55;;;;;;;;;;;;;;;22.29;53.80;101164.00;7396433;19;1498;-54
2023/07/09 04:06:24;;;;;;;;;;;;;;;22.63;52.73;101157.00;7397106;19;1556;-53
2023/07/09 04:08:52;;;;;;;;;;;;;;;22.70;52.33;101165.38;7396411;19;1484;-53
2023/07/09 04:11:23;;;;;;;;;;;;;;;22.71;52.75;101158.13;7398066;19;1188;-54
2023/07/09 04:13:51;;;;;;;;;;;;;;;22.78;52.38;101167.28;7397554;19;1464;-53
2023/07/09 04:16:20;;;;;;;;;;;;;;;22.66;52.75;101157.69;7395808;19;1865;-54
2023/07/09 04:18:48;;;;;;;;;;;;;;;22.68;52.53;101150.31;7396167;19;1615;-54
2023/07/09 04:21:16;;;;;;;;;;;;;;;22.81;52.85;101156.22;7397799;19;1395;-54
2023/07/09 04:23:44;;;;;;;;;;;;;;;22.84;53.03;101162.16;7395277;19;2111;-53
2023/07/09 04:26:15;;;;;;;;;;;;;;;22.88;52.92;101161.84;7396457;19;1474;-53
2023/07/09 04:28:45;;;;;;;;;;;;;;;22.93;52.81;101154.97;7395900;19;1410;-55
2023/07/09 04:31:14;;;;;;;;;;;;;;;22.94;52.86;101151.31;7403451;19;1652;-53
2023/07/09 04:33:43;;;;;;;;;;;;;;;22.66;53.99;101152.31;7404596;19;1817;-54
2023/07/09 04:36:12;;;;;;;;;;;;;;;22.41;54.57;101165.50;7402012;19;1848;-54
2023/07/09 04:38:41;;;;;;;;;;;;;;;22.41;54.78;101142.09;7404152;19;1430;-54
2023/07/09 04:41:09;;;;;;;;;;;;;;;22.77;54.03;101166.44;7405574;19;1351;-53
2023/07/09 04:43:37;;;;;;;;;;;;;;;22.64;54.30;101150.63;7403628;19;1489;-53
2023/07/09 04:46:08;;;;;;;;;;;;;;;22.80;54.31;101157.19;7401053;19;1548;-54
2023/07/09 04:48:37;;;;;;;;;;;;;;;22.75;54.82;101146.03;7399538;19;1629;-53
2023/07/09 04:51:05;;;;;;;;;;;;;;;22.60;55.26;101154.63;7402390;19;1386;-53
2023/07/09 04:53:33;;;;;;;;;;;;;;;22.60;55.92;101157.31;7403715;19;1672;-53
2023/07/09 04:56:02;;;;;;;;;;;;;;;22.55;55.85;101146.13;7400488;19;1849;-53
2023/07/09 04:58:30;;;;;;;;;;;;;;;22.64;56.04;101160.53;7399691;19;1461;-53
2023/07/09 05:00:59;;;;;;;;;;;;;;;22.72;56.04;101152.56;7404138;19;1425;-53
2023/07/09 05:03:30;;;;;;;;;;;;;;;22.84;55.92;101161.31;7403363;19;1426;-53
2023/07/09 05:05:58;;;;;;;;;;;;;;;23.10;55.55;101152.47;7402473;19;1390;-53
2023/07/09 05:08:27;;;;;;;;;;;;;;;23.18;55.36;101147.19;7403634;19;1473;-53
2023/07/09 05:10:55;;;;;;;;;;;;;;;23.14;55.68;101143.94;7403731;19;1333;-53
2023/07/09 05:13:24;;;;;;;;;;;;;;;23.16;56.16;101149.19;7400936;19;1500;-53
2023/07/09 05:15:53;;;;;;;;;;;;;;;23.20;56.04;101150.59;7402383;19;1840;-53
2023/07/09 05:18:21;;;;;;;;;;;;;;;23.22;56.33;101148.59;7401495;19;1481;-54
2023/07/09 05:20:52;;;;;;;;;;;;;;;23.39;56.26;101163.06;7401623;19;1657;-53
2023/07/09 05:23:20;;;;;;;;;;;;;;;23.51;56.00;101136.69;7402327;19;1422;-52
2023/07/09 05:25:49;;;;;;;;;;;;;;;23.51;56.14;101142.06;7401803;19;1514;-53
2023/07/09 05:28:17;;;;;;;;;;;;;;;23.46;56.36;101149.78;7402663;19;1485;-52
2023/07/09 05:30:45;;;;;;;;;;;;;;;23.29;57.28;101138.84;7402451;19;1397;-52
2023/07/09 05:33:13;;;;;;;;;;;;;;;23.36;57.14;101145.34;7402526;19;1167;-54
2023/07/09 05:35:42;;;;;;;;;;;;;;;23.45;57.57;101145.41;7401269;19;1861;-54
2023/07/09 05:38:13;;;;;;;;;;;;;;;23.51;57.55;101142.06;7403597;19;1346;-54
2023/07/09 05:40:41;;;;;;;;;;;;;;;23.47;58.07;101144.22;7400424;19;1489;-54
2023/07/09 05:43:10;;;;;;;;;;;;;;;23.39;58.03;101134.22;7402517;19;1710;-54
2023/07/09 05:45:38;;;;;;;;;;;;;;;23.40;58.81;101141.31;7403443;19;1028;-54
2023/07/09 05:48:07;;;;;;;;;;;;;;;23.48;58.66;101140.53;7400729;19;1821;-54
2023/07/09 05:50:36;;;;;;;;;;;;;;;23.72;58.11;101126.38;7400228;19;1435;-54
2023/07/09 05:53:05;;;;;;;;;;;;;;;23.64;58.56;101126.31;7403039;19;1703;-54
2023/07/09 05:55:36;;;;;;;;;;;;;;;23.67;58.73;101135.97;7401354;19;1834;-54
2023/07/09 05:58:05;;;;;;;;;;;;;;;23.69;58.78;101132.09;7399698;19;1441;-53
2023/07/09 06:00:33;;;;;;;;;;;;;;;24.04;58.11;101126.78;7400938;19;1379;-54
2023/07/09 06:03:03;;;;;;;;;;;;;;;24.28;57.23;101134.19;7402095;19;1789;-54
2023/07/09 06:05:32;;;;;;;;;;;;;;;24.11;57.77;101136.75;7401126;19;1270;-54
2023/07/09 06:08:00;;;;;;;;;;;;;;;23.99;58.00;101125.41;7400828;19;1466;-54
2023/07/09 06:10:29;;;;;;;;;;;;;;;24.02;58.08;101125.06;7399960;19;1205;-53
2023/07/09 06:13:00;;;;;;;;;;;;;;;24.18;57.83;101118.06;7397926;19;1184;-55
2023/07/09 06:15:29;;;;;;;;;;;;;;;24.15;57.67;101119.25;7400562;19;1855;-55
2023/07/09 06:17:57;;;;;;;;;;;;;;;24.37;57.56;101128.66;7399449;19;1382;-55
2023/07/09 06:20:25;;;;;;;;;;;;;;;24.36;57.56;101126.09;7400452;19;1846;-55
2023/07/09 06:22:53;;;;;;;;;;;;;;;24.36;57.42;101116.13;7398603;19;1378;-55
2023/07/09 06:25:22;;;;;;;;;;;;;;;24.34;57.43;101123.56;7400962;19;1564;-55
2023/07/09 06:27:50;;;;;;;;;;;;;;;24.35;57.24;101124.38;7401167;19;1283;-54
2023/07/09 06:30:21;;;;;;;;;;;;;;;24.53;56.93;101127.03;7400861;19;1939;-54
2023/07/09 06:32:49;;;;;;;;;;;;;;;24.50;57.33;101116.53;7399588;19;1917;-54
2023/07/09 06:35:17;;;;;;;;;;;;;;;24.35;57.99;101117.16;7399311;19;1928;-54
2023/07/09 06:37:46;;;;;;;;;;;;;;;24.32;57.75;101103.94;7401055;19;1809;-54
2023/07/09 06:40:14;;;;;;;;;;;;;;;24.30;57.63;101105.13;7399624;19;1354;-54
2023/07/09 06:42:42;;;;;;;;;;;;;;;24.32;57.88;101108.50;7399769;19;1572;-54
2023/07/09 06:45:11;;;;;;;;;;;;;;;24.26;58.20;101122.69;7400227;19;1109;-54
2023/07/09 06:47:42;;;;;;;;;;;;;;;24.32;57.92;101111.22;7398183;19;1410;-53
2023/07/09 06:50:10;;;;;;;;;;;;;;;24.34;57.83;101106.50;7397904;19;1473;-54
2023/07/09 06:52:39;;;;;;;;;;;;;;;24.39;57.56;101098.72;7397456;19;1334;-54
2023/07/09 06:55:08;;;;;;;;;;;;;;;24.64;57.35;101113.22;7398952;19;1858;-54
2023/07/09 06:57:36;;;;;;;;;;;;;;;24.77;57.21;101112.72;7399012;19;1710;-54
2023/07/09 07:00:04;;;;;;;;;;;;;;;24.57;57.84;101114.88;7401109;19;1402;-54
2023/07/09 07:02:32;;;;;;;;;;;;;;;24.68;57.86;101117.28;7396778;19;1435;-55
2023/07/09 07:05:03;;;;;;;;;;;;;;;24.76;57.66;101116.47;7400015;19;1821;-54
2023/07/09 07:07:32;;;;;;;;;;;;;;;24.83;57.23;101114.81;7399802;19;1457;-54
2023/07/09 07:10:00;;;;;;;;;;;;;;;24.95;57.49;101093.69;7400510;19;1271;-53
2023/07/09 07:12:29;;;;;;;;;;;;;;;24.81;58.45;101097.91;7397260;19;1444;-54
2023/07/09 07:14:58;;;;;;;;;;;;;;;24.66;58.40;101103.09;7398823;19;1762;-53
2023/07/09 07:17:26;;;;;;;;;;;;;;;24.60;58.81;101107.28;7395730;19;1857;-54
2023/07/09 07:19:55;;;;;;;;;;;;;;;24.54;58.78;101107.94;7399825;19;1342;-54
2023/07/09 07:22:26;;;;;;;;;;;;;;;24.88;58.14;101096.19;7399501;19;1316;-53
2023/07/09 07:24:54;;;;;;;;;;;;;;;24.68;58.82;101094.81;7398565;19;1947;-54
2023/07/09 07:27:22;;;;;;;;;;;;;;;24.63;59.36;101089.03;7397079;19;1847;-54
2023/07/09 07:29:51;;;;;;;;;;;;;;;24.59;59.14;101093.94;7393989;19;1789;-54
2023/07/09 07:32:19;;;;;;;;;;;;;;;24.83;58.51;101101.28;7393196;19;1323;-53
2023/07/09 07:34:48;;;;;;;;;;;;;;;24.92;58.37;101099.41;7394705;19;1634;-54
2023/07/09 07:37:17;;;;;;;;;;;;;;;24.75;58.73;101099.41;7396923;19;1845;-53
2023/07/09 07:39:47;;;;;;;;;;;;;;;24.63;59.03;101086.34;7397308;19;1516;-54
2023/07/09 07:42:16;;;;;;;;;;;;;;;24.60;59.23;101085.66;7400708;19;1588;-54
2023/07/09 07:44:44;;;;;;;;;;;;;;;24.60;59.65;101092.94;7399349;19;1814;-55
2023/07/09 07:47:12;;;;;;;;;;;;;;;24.61;60.15;101092.78;7396271;19;1434;-53
2023/07/09 07:49:41;;;;;;;;;;;;;;;24.84;59.10;101091.28;7396193;19;1425;-54
2023/07/09 07:52:10;;;;;;;;;;;;;;;24.92;58.96;101089.44;7398056;19;1207;-54
2023/07/09 07:54:38;;;;;;;;;;;;;;;24.97;58.78;101091.66;7398443;19;1727;-53
2023/07/09 07:57:10;;;;;;;;;;;;;;;24.73;59.76;101082.50;7396776;19;1846;-54
2023/07/09 07:59:39;;;;;;;;;;;;;;;24.85;59.45;101077.63;7397742;19;1445;-54
2023/07/09 08:02:08;;;;;;;;;;;;;;;24.90;59.18;101077.94;7397260;19;1433;-54
2023/07/09 08:04:36;;;;;;;;;;;;;;;24.75;60.37;101082.31;7394611;19;1761;-54
2023/07/09 08:07:05;;;;;;;;;;;;;;;24.75;60.22;101083.16;7397205;19;1786;-55
2023/07/09 08:09:33;;;;;;;;;;;;;;;24.79;60.34;101073.72;7396893;19;1455;-53
2023/07/09 08:12:05;;;;;;;;;;;;;;;24.72;60.69;101066.41;7397487;19;1347;-54
2023/07/09 08:14:36;;;;;;;;;;;;;;;24.98;59.83;101077.94;7394823;19;1299;-54
2023/07/09 08:17:04;;;;;;;;;;;;;;;24.89;60.65;101060.03;7395891;19;1869;-55
2023/07/09 08:19:32;;;;;;;;;;;;;;;24.75;60.41;101057.97;7395964;19;1889;-54
2023/07/09 08:22:01;;;;;;;;;;;;;;;24.60;61.43;101084.81;7396486;19;1434;-53
2023/07/09 08:24:29;;;;;;;;;;;;;;;24.81;60.49;101066.28;7394784;19;1465;-53
2023/07/09 08:27:00;;;;;;;;;;;;;;;24.72;62.85;101066.41;7395673;19;1379;-63
2023/07/09 08:29:28;;;;;;;;;;;;;;;24.67;63.19;101063.34;7395939;19;1262;-63
2023/07/09 08:31:59;;;;;;;;;;;;;;;24.67;62.81;101068.75;7394979;19;1250;-62
2023/07/09 08:34:27;;;;;;;;;;;;;;;24.91;62.55;101060.72;7394323;19;1207;-63
2023/07/09 08:36:56;;;;;;;;;;;;;;;24.89;62.90;101060.03;7395116;19;1845;-63
2023/07/09 08:39:24;;;;;;;;;;;;;;;24.84;64.40;101056.97;7393927;19;1544;-62
2023/07/09 08:41:56;;;;;;;;;;;;;;;24.86;63.99;101065.75;7395473;19;1581;-62
2023/07/09 08:44:42;;;;;;;;;;;;;;;24.64;65.03;101058.28;7391320;19;1707;-62
2023/07/09 08:47:15;;;;;;;;;;;;;;;24.66;64.23;101058.97;7388728;19;1460;-63
2023/07/09 08:49:48;;;;;;;;;;;;;;;24.72;64.47;101064.56;7388730;19;1461;-63
2023/07/09 08:52:21;;;;;;;;;;;;;;;24.62;65.09;101069.28;7392553;19;1138;-63
2023/07/09 08:54:50;;;;;;;;;;;;;;;24.60;66.21;101047.81;7393703;19;1232;-68
2023/07/09 08:57:23;;;;;;;;;;;;;;;24.61;66.24;101065.72;7390983;19;1877;-64
2023/07/09 08:59:52;;;;;;;;;;;;;;;24.76;65.43;101056.97;7394370;19;1482;-66
2023/07/09 09:02:31;;;;;;;;;;;;;;;24.92;64.69;101056.13;7392791;19;1203;-68
2023/07/09 09:04:59;;;;;;;;;;;;;;;24.91;65.21;101060.72;7393796;19;1251;-62
2023/07/09 09:07:34;;;;;;;;;;;;;;;25.08;65.35;101066.13;7393296;19;1286;-59
2023/07/09 09:10:05;;;;;;;;;;;;;;;25.03;65.18;101053.09;7389752;19;1266;-65
2023/07/09 09:12:38;;;;;;;;;;;;;;;24.96;65.34;101061.03;7389890;19;1164;-65
2023/07/09 09:15:12;;;;;;;;;;;;;;;24.86;67.22;101057.66;7393257;19;1169;-65
2023/07/09 09:17:43;;;;;;;;;;;;;;;24.94;65.94;101054.94;7397597;19;1926;-64
2023/07/09 09:20:14;;;;;;;;;;;;;;;24.96;65.89;101061.03;7400986;19;1552;-65
2023/07/09 09:22:45;;;;;;;;;;;;;;;24.95;65.32;101051.25;7401880;19;1350;-65
2023/07/09 09:25:21;;;;;;;;;;;;;;;25.08;64.83;101055.31;7400195;19;1330;-64
2023/07/09 09:27:49;;;;;;;;;;;;;;;24.78;66.78;101049.53;7400663;19;1355;-65
2023/07/09 09:30:18;;;;;;;;;;;;;;;24.74;66.56;101049.00;7399613;19;1620;-67
2023/07/09 09:32:50;;;;;;;;;;;;;;;24.77;66.62;101053.22;7400397;19;1212;-63
2023/07/09 09:35:20;;;;;;;;;;;;;;;24.71;67.73;101048.50;7394102;19;1533;-63
2023/07/09 09:37:53;;;;;;;;;;;;;;;24.74;67.28;101046.31;7394608;19;1841;-63
2023/07/09 09:40:23;;;;;;;;;;;;;;;24.98;65.79;101056.28;7395987;19;1969;-63
2023/07/09 09:42:51;;;;;;;;;;;;;;;24.72;66.74;101053.75;7393896;19;1573;-64
2023/07/09 09:45:21;;;;;;;;;;;;;;;24.76;67.05;101049.69;7398933;19;1140;-64
2023/07/09 09:47:52;;;;;;;;;;;;;;;24.22;67.50;100968.13;7396297;19;1407;-64
2023/07/09 09:50:21;;;;;;;;;;;;;;;24.77;66.17;101047.81;7392808;19;1318;-66
2023/07/09 09:52:50;;;;;;;;;;;;;;;24.70;67.93;101052.22;7389399;19;1410;-61
2023/07/09 09:55:20;;;;;;;;;;;;;;;24.67;68.29;101044.44;7395791;19;1568;-61
2023/07/09 09:57:52;;;;;;;;;;;;;;;24.80;67.04;101053.75;7393194;19;1858;-62
2023/07/09 10:00:21;;;;;;;;;;;;;;;24.93;66.74;101064.09;7394940;19;1833;-61
2023/07/09 10:02:52;;;;;;;;;;;;;;;25.00;66.54;101054.28;7399687;19;1040;-63
2023/07/09 10:05:24;;;;;;;;;;;;;;;25.00;66.43;101048.03;7398563;19;1512;-61
2023/07/09 10:07:58;;;;;;;;;;;;;;;24.93;67.34;101037.03;7398605;19;1339;-62
2023/07/09 10:10:29;;;;;;;;;;;;;;;24.76;68.22;101036.16;7397138;19;1520;-63
2023/07/09 10:13:02;;;;;;;;;;;;;;;24.92;67.55;101040.75;7398257;19;1444;-63
2023/07/09 10:15:36;;;;;;;;;;;;;;;24.95;66.71;101047.69;7397150;19;1156;-64
2023/07/09 10:18:12;;;;;;;;;;;;;;;24.99;66.62;101035.53;7396954;19;1846;-62
2023/07/09 10:20:46;;;;;;;;;;;;;;;24.84;67.08;101043.44;7397696;19;1173;-64
2023/07/09 10:23:24;;;;;;;;;;;;;;;24.90;66.98;101048.19;7395662;19;1327;-63
2023/07/09 10:25:55;;;;;;;;;;;;;;;24.81;67.16;101030.28;7397259;19;1500;-62
2023/07/09 10:28:42;;;;;;;;;;;;;;;24.75;67.07;101033.63;7392818;19;1389;-62
2023/07/09 10:31:12;;;;;;;;;;;;;;;24.86;67.19;101041.41;7392240;19;1639;-62
2023/07/09 10:33:48;;;;;;;;;;;;;;;24.92;66.32;101032.63;7395269;19;1436;-63
2023/07/09 10:36:24;;;;;;;;;;;;;;;24.90;66.44;101029.25;7397871;19;1250;-62
2023/07/09 10:38:57;;;;;;;;;;;;;;;24.76;67.82;101029.91;7396749;19;1966;-62
2023/07/09 10:41:26;;;;;;;;;;;;;;;24.58;67.52;101028.19;7398812;19;1123;-62
2023/07/09 10:43:58;;;;;;;;;;;;;;;24.61;67.81;101021.59;7395024;19;1358;-62
2023/07/09 10:46:28;;;;;;;;;;;;;;;24.74;66.86;101005.72;7399228;19;1227;-62
2023/07/09 10:49:00;;;;;;;;;;;;;;;24.79;65.58;101016.91;7397895;19;1166;-62
2023/07/09 10:51:30;;;;;;;;;;;;;;;24.71;66.23;101006.09;7397896;19;1549;-62
2023/07/09 10:54:00;;;;;;;;;;;;;;;24.65;66.41;101028.38;7398291;19;1513;-63
2023/07/09 10:56:30;;;;;;;;;;;;;;;24.54;67.34;101004.38;7397781;19;1873;-63
2023/07/09 10:59:05;;;;;;;;;;;;;;;24.55;67.27;101009.63;7394014;19;1397;-62
2023/07/09 11:01:37;;;;;;;;;;;;;;;24.90;65.70;101010.31;7392828;19;1488;-59
2023/07/09 11:04:12;;;;;;;;;;;;;;;24.75;66.54;101018.25;7396482;19;1540;-61
2023/07/09 11:06:43;;;;;;;;;;;;;;;24.76;65.62;101002.88;7396680;19;1589;-62
2023/07/09 11:09:16;;;;;;;;;;;;;;;24.79;65.60;101010.66;7397601;19;1208;-62
2023/07/09 11:11:47;;;;;;;;;;;;;;;24.69;66.73;101023.47;7398094;19;1214;-62
2023/07/09 11:14:26;;;;;;;;;;;;;;;24.51;65.87;101005.56;7396006;19;1246;-63
2023/07/09 11:16:56;;;;;;;;;;;;;;;24.52;66.34;101001.81;7396812;19;1860;-61
2023/07/09 11:19:27;;;;;;;;;;;;;;;24.89;65.30;101019.44;7396759;19;1172;-61
2023/07/09 11:22:05;;;;;;;;;;;;;;;24.74;65.35;100999.50;7395960;19;1191;-62
2023/07/09 11:24:35;;;;;;;;;;;;;;;24.50;65.42;101003.84;7396011;19;1223;-63
2023/07/09 11:27:03;;;;;;;;;;;;;;;24.60;65.32;100993.72;7396375;19;1482;-62
2023/07/09 11:29:33;;;;;;;;;;;;;;;24.76;65.02;101005.56;7396535;19;1481;-63
2023/07/09 11:32:10;;;;;;;;;;;;;;;24.59;65.43;101004.69;7395568;19;1469;-63
2023/07/09 11:34:47;;;;;;;;;;;;;;;24.77;65.12;101002.72;7395568;19;1529;-63
2023/07/09 11:37:16;;;;;;;;;;;;;;;24.76;65.63;100997.47;7394183;19;1859;-63
2023/07/09 11:39:46;;;;;;;;;;;;;;;24.78;65.62;100990.84;7394372;19;1455;-63
2023/07/09 11:42:27;;;;;;;;;;;;;;;24.84;65.21;100991.22;7396223;19;1211;-63
2023/07/09 11:44:59;;;;;;;;;;;;;;;24.79;65.51;100983.63;7396400;19;1599;-63
2023/07/09 11:47:30;;;;;;;;;;;;;;;24.83;65.75;100990.38;7395882;19;1814;-63
2023/07/09 11:50:03;;;;;;;;;;;;;;;24.77;65.70;100982.91;7395920;19;1275;-63
2023/07/09 11:52:34;;;;;;;;;;;;;;;24.74;65.64;100978.69;7395143;19;1145;-63
2023/07/09 11:55:04;;;;;;;;;;;;;;;24.79;65.76;100986.31;7396185;19;1506;-63
2023/07/09 11:57:33;;;;;;;;;;;;;;;24.76;65.76;100975.81;7395532;19;1843;-63
2023/07/09 12:00:02;;;;;;;;;;;;;;;24.70;65.78;100987.31;7393859;19;1497;-63
2023/07/09 12:02:35;;;;;;;;;;;;;;;24.72;65.55;100974.47;7394333;19;1171;-63
2023/07/09 12:05:07;;;;;;;;;;;;;;;24.70;65.91;100969.22;7395182;19;1459;-63
2023/07/09 12:07:35;;;;;;;;;;;;;;;24.66;65.90;100975.97;7394878;19;1208;-63
2023/07/09 12:10:06;;;;;;;;;;;;;;;24.65;65.79;100973.44;7394716;19;1394;-63
2023/07/09 12:12:34;;;;;;;;;;;;;;;24.63;65.87;100980.88;7394611;19;1163;-63
2023/07/09 12:15:07;;;;;;;;;;;;;;;24.67;65.72;100979.53;7392928;19;1643;-63
2023/07/09 12:17:35;;;;;;;;;;;;;;;24.48;65.23;100973.41;7393778;19;1871;-63
2023/07/09 12:20:06;;;;;;;;;;;;;;;24.35;66.73;100962.22;7394031;19;1536;-63
2023/07/09 12:22:35;;;;;;;;;;;;;;;24.41;65.84;100967.81;7393648;19;1551;-64
2023/07/09 12:25:04;;;;;;;;;;;;;;;24.55;65.63;100974.47;7391861;19;1494;-63
2023/07/09 12:27:37;;;;;;;;;;;;;;;24.63;65.64;100960.13;7395305;19;1115;-64
2023/07/09 12:30:05;;;;;;;;;;;;;;;24.61;65.47;100967.50;7396607;19;1079;-64
2023/07/09 12:32:33;;;;;;;;;;;;;;;24.59;65.55;100965.00;7395478;19;1429;-63
2023/07/09 12:35:02;;;;;;;;;;;;;;;24.86;64.52;100954.84;6870562;19;10000400;-63
2023/07/09 12:37:33;;;;;;;;;;;;;;;25.07;63.88;100961.59;7384800;19;1847;-63
2023/07/09 12:40:02;;;;;;;;;;;;;;;25.08;63.96;100960.59;7384934;19;1370;-62
2023/07/09 12:42:33;;;;;;;;;;;;;;;24.92;63.74;100954.16;7385480;19;1548;-63
2023/07/09 12:45:01;;;;;;;;;;;;;;;24.83;64.15;100967.88;7384855;19;1521;-62
2023/07/09 12:47:30;;;;;;;;;;;;;;;24.76;64.61;100954.19;7386727;19;1876;-62
2023/07/09 12:50:03;;;;;;;;;;;;;;;24.82;64.40;100950.81;7390660;19;1270;-63
2023/07/09 12:52:34;;;;;;;;;;;;;;;24.79;64.25;100943.03;7395746;19;1853;-63
2023/07/09 12:55:03;;;;;;;;;;;;;;;24.83;64.32;100944.41;7395565;19;1493;-63
2023/07/09 12:57:33;;;;;;;;;;;;;;;24.92;64.46;100937.94;7395668;19;1868;-62
2023/07/09 13:00:01;;;;;;;;;;;;;;;24.90;64.34;100945.38;7395178;19;1763;-63
2023/07/09 13:02:30;;;;;;;;;;;;;;;24.91;64.38;100936.28;7395952;19;1770;-62